Time;durP1;ratioP1;P1;durP2;ratioP2;P2;SDS_P1;SDS_P2;PMS_P1;PMS_P2;Temp;Humidity;BMP_temperature;BMP_pressure;BME280_temperature;BME280_humidity;BME280_pressure;Samples;Min_cycle;Max_cycle;Signal;HPM_P1;HPM_P2
2021/01/18 00:01:21;;;;;;;29.30;4.40;;;1.60;99.90;;;;;;5113707;28;20043;-61
2021/01/18 00:03:47;;;;;;;31.90;4.18;;;1.50;99.90;;;;;;5114379;28;20044;-62
2021/01/18 00:06:18;;;;;;;28.17;4.53;;;1.50;99.90;;;;;;5107601;28;20040;-62
2021/01/18 00:08:44;;;;;;;33.35;5.40;;;1.50;99.90;;;;;;5107383;28;20113;-62
2021/01/18 00:11:12;;;;;;;39.83;5.45;;;1.50;99.90;;;;;;5108264;28;20155;-62
2021/01/18 00:13:39;;;;;;;29.70;5.65;;;1.60;99.90;;;;;;5115554;28;20111;-62
2021/01/18 00:16:06;;;;;;;40.40;5.00;;;1.60;99.90;;;;;;5107874;28;20420;-61
2021/01/18 00:18:32;;;;;;;26.20;5.32;;;1.70;99.90;;;;;;5114215;28;20048;-62
2021/01/18 00:20:59;;;;;;;29.65;6.22;;;1.70;99.90;;;;;;5121538;28;20062;-62
2021/01/18 00:23:25;;;;;;;29.17;4.70;;;1.90;99.90;;;;;;5110174;28;20047;-61
2021/01/18 00:25:51;;;;;;;39.42;5.25;;;1.80;99.90;;;;;;5113135;28;20043;-61
2021/01/18 00:28:18;;;;;;;38.88;7.10;;;1.80;99.90;;;;;;5107696;28;20048;-61
2021/01/18 00:30:44;;;;;;;30.95;5.80;;;1.90;99.90;;;;;;5106814;28;20044;-61
2021/01/18 00:33:10;;;;;;;36.72;6.22;;;1.90;99.90;;;;;;5107296;28;20044;-62
2021/01/18 00:35:36;;;;;;;30.52;5.13;;;1.90;99.90;;;;;;5106822;28;20036;-61
2021/01/18 00:38:03;;;;;;;32.08;5.25;;;1.90;99.90;;;;;;5106732;28;20052;-61
2021/01/18 00:40:29;;;;;;;31.08;4.90;;;1.80;99.90;;;;;;5107644;28;20074;-62
2021/01/18 00:42:56;;;;;;;25.92;5.20;;;1.90;99.90;;;;;;5107174;28;20044;-62
2021/01/18 00:45:23;;;;;;;32.72;6.20;;;2.00;99.90;;;;;;5106384;28;20111;-62
2021/01/18 00:47:51;;;;;;;25.35;4.90;;;2.00;99.90;;;;;;5106731;28;20048;-62
2021/01/18 00:50:23;;;;;;;27.15;4.85;;;2.10;99.90;;;;;;5106650;28;20085;-62
2021/01/18 00:52:50;;;;;;;23.15;4.30;;;2.00;99.90;;;;;;5109076;28;20056;-61
2021/01/18 00:55:18;;;;;;;23.58;4.07;;;1.80;99.90;;;;;;5111492;28;20047;-62
2021/01/18 00:57:46;;;;;;;33.22;4.32;;;1.70;99.90;;;;;;5106186;28;20040;-61
2021/01/18 01:00:13;;;;;;;28.67;4.82;;;1.60;99.90;;;;;;5101470;28;20048;-62
2021/01/18 01:02:41;;;;;;;23.33;4.47;;;1.50;99.90;;;;;;5106313;28;20036;-61
2021/01/18 01:05:08;;;;;;;31.13;5.43;;;1.40;99.90;;;;;;5106411;28;20048;-62
2021/01/18 01:07:43;;;;;;;32.63;5.05;;;1.30;99.90;;;;;;5106431;28;20482;-62
2021/01/18 01:10:11;;;;;;;22.60;5.10;;;1.20;99.90;;;;;;5106359;28;20051;-62
2021/01/18 01:12:37;;;;;;;31.60;4.78;;;1.20;99.90;;;;;;5106283;28;20040;-61
2021/01/18 01:15:05;;;;;;;25.55;3.90;;;1.20;99.90;;;;;;5105946;28;20074;-62
2021/01/18 01:17:31;;;;;;;26.23;4.30;;;1.30;99.90;;;;;;5106613;28;20048;-61
2021/01/18 01:19:57;;;;;;;20.38;4.97;;;1.30;99.90;;;;;;5105696;28;20059;-62
2021/01/18 01:22:23;;;;;;;25.90;3.97;;;1.30;99.90;;;;;;5106165;28;20052;-62
2021/01/18 01:24:48;;;;;;;26.65;5.50;;;1.30;99.90;;;;;;5105635;28;20040;-62
2021/01/18 01:27:14;;;;;;;24.30;3.70;;;1.40;99.90;;;;;;5106288;28;20100;-62
2021/01/18 01:29:40;;;;;;;25.17;4.20;;;1.40;99.90;;;;;;5105868;28;20052;-62
2021/01/18 01:32:06;;;;;;;23.50;4.15;;;1.40;99.90;;;;;;5106722;28;20561;-62
2021/01/18 01:34:33;;;;;;;28.83;4.00;;;1.40;99.90;;;;;;5105677;28;20400;-62
2021/01/18 01:36:59;;;;;;;19.30;3.97;;;1.40;99.90;;;;;;5105691;28;20040;-62
2021/01/18 01:39:25;;;;;;;13.65;3.60;;;1.40;99.90;;;;;;5104899;28;20047;-62
2021/01/18 01:41:50;;;;;;;18.00;3.80;;;1.50;99.90;;;;;;5105786;28;20488;-62
2021/01/18 01:44:16;;;;;;;26.38;3.85;;;1.50;99.90;;;;;;5105856;28;20044;-61
2021/01/18 01:46:42;;;;;;;19.70;3.30;;;1.50;99.90;;;;;;5105611;28;20044;-62
2021/01/18 01:49:08;;;;;;;23.08;4.03;;;1.50;99.90;;;;;;5105390;28;20484;-62
2021/01/18 01:51:35;;;;;;;23.02;4.43;;;1.50;99.90;;;;;;5105392;28;20474;-62
2021/01/18 01:54:01;;;;;;;27.10;3.72;;;1.60;99.90;;;;;;5112753;28;20221;-62
2021/01/18 01:56:27;;;;;;;18.17;3.35;;;1.70;99.90;;;;;;5105136;28;20040;-62
2021/01/18 01:58:53;;;;;;;19.67;3.50;;;1.70;99.90;;;;;;5105113;28;20047;-61
2021/01/18 02:01:21;;;;;;;21.27;3.83;;;1.70;99.90;;;;;;5104575;28;20044;-62
2021/01/18 02:03:51;;;;;;;16.48;2.80;;;1.70;99.90;;;;;;5105553;28;20048;-62
2021/01/18 02:06:18;;;;;;;13.68;3.05;;;1.70;99.90;;;;;;5105221;28;20044;-62
2021/01/18 02:08:45;;;;;;;18.45;3.38;;;1.80;99.90;;;;;;5104892;28;20116;-61
2021/01/18 02:11:11;;;;;;;20.30;4.03;;;1.70;99.90;;;;;;5104970;28;20055;-62
2021/01/18 02:13:49;;;;;;;23.38;3.50;;;1.80;99.90;;;;;;5105373;28;20040;-61
2021/01/18 02:16:42;;;;;;;20.23;3.95;;;1.80;99.90;;;;;;5105138;28;20073;-62
2021/01/18 02:19:27;;;;;;;14.68;3.08;;;1.80;99.90;;;;;;5104894;28;20097;-62
2021/01/18 02:22:15;;;;;;;18.63;3.65;;;1.80;99.90;;;;;;5105265;28;20044;-62
2021/01/18 02:25:18;;;;;;;22.27;3.80;;;1.70;99.90;;;;;;5104807;28;20044;-62
2021/01/18 02:28:04;;;;;;;19.92;3.88;;;1.80;99.90;;;;;;5104874;28;20052;-62
2021/01/18 02:30:51;;;;;;;23.60;4.72;;;1.80;99.90;;;;;;5105015;28;20098;-62
2021/01/18 02:33:27;;;;;;;20.27;4.30;;;1.70;99.90;;;;;;5116312;28;20059;-62
2021/01/18 02:36:20;;;;;;;16.90;4.10;;;1.70;99.90;;;;;;5108959;28;20055;-61
2021/01/18 02:39:07;;;;;;;22.35;5.07;;;1.70;99.90;;;;;;5105469;28;20036;-62
2021/01/18 02:41:46;;;;;;;27.63;4.20;;;1.70;99.90;;;;;;5115439;28;20121;-62
2021/01/18 02:44:22;;;;;;;16.58;3.88;;;1.70;99.90;;;;;;5104879;28;20107;-62
2021/01/18 02:46:50;;;;;;;24.23;4.35;;;1.70;99.90;;;;;;5104975;28;20056;-61
2021/01/18 02:49:17;;;;;;;27.50;4.82;;;1.70;99.90;;;;;;5104644;28;20044;-62
2021/01/18 02:51:49;;;;;;;19.77;4.10;;;1.80;99.90;;;;;;5104605;28;20512;-62
2021/01/18 02:54:15;;;;;;;22.63;4.22;;;1.80;99.90;;;;;;5121259;28;20071;-62
2021/01/18 02:56:49;;;;;;;27.10;4.78;;;1.90;99.90;;;;;;5104475;28;20468;-62
2021/01/18 02:59:15;;;;;;;24.88;4.28;;;1.90;99.90;;;;;;5110882;28;20055;-61
2021/01/18 03:01:53;;;;;;;19.65;3.60;;;2.00;99.90;;;;;;5120264;28;20052;-61
2021/01/18 03:04:43;;;;;;;22.35;4.05;;;2.10;99.90;;;;;;5105242;28;20051;-62
2021/01/18 03:07:17;;;;;;;11.70;2.83;;;2.20;99.90;;;;;;5104556;28;20126;-62
2021/01/18 03:09:57;;;;;;;23.55;4.53;;;2.10;99.90;;;;;;5104194;28;20111;-62
2021/01/18 03:12:28;;;;;;;24.45;4.25;;;2.10;99.90;;;;;;5104473;28;20048;-62
2021/01/18 03:14:54;;;;;;;;;;;2.10;99.90;;;;;;5108810;28;20043;-61
2021/01/18 03:17:26;;;;;;;23.45;4.10;;;2.10;99.90;;;;;;5104722;28;19931;-62
2021/01/18 03:19:53;;;;;;;20.00;3.80;;;2.10;99.90;;;;;;5103879;28;20138;-62
2021/01/18 03:22:24;;;;;;;20.17;3.88;;;2.10;99.90;;;;;;5104666;28;20132;-62
2021/01/18 03:24:51;;;;;;;17.48;4.28;;;2.00;99.90;;;;;;5117991;28;20127;-62
2021/01/18 03:27:17;;;;;;;18.83;3.88;;;2.00;99.90;;;;;;5104399;28;20054;-62
2021/01/18 03:29:43;;;;;;;22.83;4.07;;;2.10;99.90;;;;;;5103777;28;20070;-61
2021/01/18 03:32:09;;;;;;;20.40;4.10;;;2.10;99.90;;;;;;5104465;28;20048;-62
2021/01/18 03:34:36;;;;;;;21.63;3.80;;;2.10;99.90;;;;;;5104042;28;20048;-61
2021/01/18 03:37:02;;;;;;;23.65;4.32;;;2.10;99.90;;;;;;5118741;28;20122;-62
2021/01/18 03:39:30;;;;;;;25.67;5.28;;;2.00;99.90;;;;;;5104577;28;20044;-61
2021/01/18 03:41:57;;;;;;;17.02;4.35;;;2.00;99.90;;;;;;5104096;28;20044;-62
2021/01/18 03:44:23;;;;;;;27.38;4.80;;;2.10;99.90;;;;;;5104357;28;20044;-62
2021/01/18 03:46:49;;;;;;;20.02;3.65;;;2.10;99.90;;;;;;5104112;28;20044;-62
2021/01/18 03:49:14;;;;;;;22.50;4.38;;;2.10;99.90;;;;;;5104170;28;20050;-62
2021/01/18 03:51:41;;;;;;;21.23;4.40;;;2.10;99.90;;;;;;5104003;28;20143;-62
2021/01/18 03:54:07;;;;;;;21.13;4.25;;;2.00;99.90;;;;;;5119281;28;20138;-62
2021/01/18 03:56:41;;;;;;;20.67;4.20;;;2.00;99.90;;;;;;5109119;28;20044;-61
2021/01/18 03:59:07;;;;;;;21.05;4.82;;;2.00;99.90;;;;;;5119334;28;20052;-61
2021/01/18 04:01:40;;;;;;;18.33;3.75;;;2.00;99.90;;;;;;5105512;27;20055;-62
2021/01/18 04:04:06;;;;;;;21.02;4.68;;;2.00;99.90;;;;;;5107593;28;20044;-62
2021/01/18 04:06:37;;;;;;;22.33;3.90;;;2.00;99.90;;;;;;5113330;28;20058;-62
2021/01/18 04:09:04;;;;;;;23.13;4.55;;;2.00;99.90;;;;;;5102003;28;20058;-61
2021/01/18 04:11:31;;;;;;;20.23;4.20;;;1.90;99.90;;;;;;5108155;28;20070;-62
2021/01/18 04:13:57;;;;;;;26.20;4.70;;;2.00;99.90;;;;;;5109179;28;20064;-61
2021/01/18 04:16:23;;;;;;;25.73;4.15;;;2.00;99.90;;;;;;5108638;28;20032;-62
2021/01/18 04:18:49;;;;;;;23.40;4.40;;;2.00;99.90;;;;;;5107532;28;20044;-62
2021/01/18 04:21:16;;;;;;;18.17;3.90;;;2.00;99.90;;;;;;5107112;27;20043;-61
2021/01/18 04:23:43;;;;;;;19.05;3.92;;;2.00;99.90;;;;;;5107402;28;20056;-62
2021/01/18 04:26:09;;;;;;;27.00;5.00;;;2.10;99.90;;;;;;5120597;28;20044;-62
2021/01/18 04:28:35;;;;;;;26.55;3.95;;;2.10;99.90;;;;;;5107392;28;20109;-62
2021/01/18 04:31:01;;;;;;;23.67;4.40;;;2.10;99.90;;;;;;5108541;28;20044;-62
2021/01/18 04:33:26;;;;;;;19.00;5.00;;;2.00;99.90;;;;;;5117205;28;20059;-61
2021/01/18 04:35:56;;;;;;;28.02;4.38;;;2.10;99.90;;;;;;5088824;28;20103;-62
2021/01/18 04:38:23;;;;;;;24.70;4.38;;;2.10;99.90;;;;;;5106936;28;20248;-62
2021/01/18 04:40:49;;;;;;;22.70;5.00;;;2.00;99.60;;;;;;5106695;28;20078;-62
2021/01/18 04:43:16;;;;;;;28.88;4.18;;;2.00;99.80;;;;;;5117235;28;20044;-61
2021/01/18 04:45:43;;;;;;;15.13;3.90;;;2.10;99.50;;;;;;5110208;27;20290;-62
2021/01/18 04:48:09;;;;;;;23.20;4.20;;;2.00;99.50;;;;;;5106679;28;20044;-62
2021/01/18 04:50:35;;;;;;;17.65;3.67;;;2.00;99.60;;;;;;5110253;27;20060;-61
2021/01/18 04:53:12;;;;;;;16.35;4.80;;;2.00;99.90;;;;;;5117797;28;20044;-62
2021/01/18 04:55:44;;;;;;;17.05;5.00;;;2.00;99.90;;;;;;5106984;27;20040;-62
2021/01/18 04:58:20;;;;;;;19.33;4.40;;;2.00;99.90;;;;;;5109926;28;20039;-61
2021/01/18 05:00:48;;;;;;;21.05;4.65;;;2.10;99.90;;;;;;5107430;28;20118;-61
2021/01/18 05:03:19;;;;;;;28.60;4.80;;;2.00;99.70;;;;;;5116346;28;20074;-62
2021/01/18 05:05:51;;;;;;;16.55;4.95;;;2.00;99.70;;;;;;5106396;28;20078;-62
2021/01/18 05:08:55;;;;;;;20.55;5.43;;;1.90;99.90;;;;;;5106114;28;20044;-61
2021/01/18 05:11:21;;;;;;;23.48;7.00;;;2.00;99.70;;;;;;5119178;28;20066;-61
2021/01/18 05:13:48;;;;;;;21.33;6.40;;;2.00;99.60;;;;;;5105397;28;20044;-61
2021/01/18 05:16:14;;;;;;;20.60;6.15;;;2.10;99.30;;;;;;5106536;28;20072;-62
2021/01/18 05:18:41;;;;;;;23.30;6.13;;;2.20;98.80;;;;;;5106137;28;20052;-62
2021/01/18 05:21:10;;;;;;;20.33;7.35;;;2.20;99.20;;;;;;5106255;28;20054;-61
2021/01/18 05:23:45;;;;;;;23.42;6.47;;;2.10;99.10;;;;;;5105752;28;20040;-61
2021/01/18 05:26:26;;;;;;;22.38;7.28;;;2.20;99.10;;;;;;5106128;28;20052;-61
2021/01/18 05:28:56;;;;;;;21.83;7.47;;;2.10;99.20;;;;;;5105877;28;20051;-61
2021/01/18 05:31:28;;;;;;;;;;;2.10;99.10;;;;;;5107255;28;20105;-62
2021/01/18 05:34:05;;;;;;;26.63;9.02;;;2.20;99.00;;;;;;5132431;27;19963;-61
2021/01/18 05:36:35;;;;;;;31.63;9.65;;;2.20;98.80;;;;;;5105862;28;20044;-61
2021/01/18 05:39:30;;;;;;;30.17;9.35;;;2.20;98.80;;;;;;5105874;28;20074;-62
2021/01/18 05:41:55;;;;;;;26.73;9.13;;;2.10;99.40;;;;;;5105771;28;20048;-61
2021/01/18 05:44:34;;;;;;;30.17;8.88;;;2.20;98.90;;;;;;5105807;28;20113;-61
2021/01/18 05:47:05;;;;;;;33.78;10.68;;;2.20;99.10;;;;;;5105694;28;20072;-61
2021/01/18 05:49:48;;;;;;;24.35;9.23;;;2.20;99.40;;;;;;5114476;28;20047;-62
2021/01/18 05:52:28;;;;;;;29.98;10.38;;;2.30;99.20;;;;;;5124965;28;20803;-62
2021/01/18 05:55:15;;;;;;;24.42;9.82;;;2.20;99.10;;;;;;5124596;28;20051;-63
2021/01/18 05:57:58;;;;;;;26.67;9.60;;;2.20;99.50;;;;;;5124121;28;20058;-61
2021/01/18 06:00:28;;;;;;;25.35;9.45;;;2.30;99.40;;;;;;5110438;28;20051;-61
2021/01/18 06:02:55;;;;;;;32.53;10.27;;;2.30;99.40;;;;;;5119528;28;20046;-62
2021/01/18 06:05:26;;;;;;;24.10;9.95;;;2.30;99.40;;;;;;5123624;28;20039;-63
2021/01/18 06:07:52;;;;;;;30.23;10.48;;;2.30;99.40;;;;;;5123379;28;20088;-61
2021/01/18 06:10:31;;;;;;;32.72;10.48;;;2.40;99.80;;;;;;5121794;28;20102;-62
2021/01/18 06:12:58;;;;;;;25.52;9.80;;;2.40;99.10;;;;;;5124209;28;20035;-62
2021/01/18 06:15:26;;;;;;;29.33;9.98;;;2.50;98.90;;;;;;5125919;28;20534;-61
2021/01/18 06:17:56;;;;;;;28.52;10.65;;;2.50;98.90;;;;;;5123048;28;20047;-62
2021/01/18 06:20:27;;;;;;;;;;;2.50;99.00;;;;;;5104918;28;20051;-62
2021/01/18 06:22:56;;;;;;;36.80;11.23;;;2.50;99.10;;;;;;5124388;28;19919;-62
2021/01/18 06:25:25;;;;;;;29.58;11.32;;;2.50;99.10;;;;;;5124262;28;20151;-62
2021/01/18 06:27:52;;;;;;;37.92;11.13;;;2.50;99.20;;;;;;5123658;28;20095;-61
2021/01/18 06:30:29;;;;;;;32.97;11.27;;;2.60;99.30;;;;;;5103804;28;20052;-62
2021/01/18 06:33:02;;;;;;;30.27;9.93;;;2.60;99.10;;;;;;5103053;28;20115;-62
2021/01/18 06:35:32;;;;;;;25.25;10.18;;;2.60;99.40;;;;;;5094737;28;20055;-62
2021/01/18 06:38:07;;;;;;;28.25;10.18;;;2.70;99.00;;;;;;5098790;28;20063;-62
2021/01/18 06:40:38;;;;;;;27.65;10.30;;;2.60;99.00;;;;;;5096600;28;20262;-62
2021/01/18 06:43:10;;;;;;;29.35;10.57;;;2.50;99.20;;;;;;5103265;28;20062;-62
2021/01/18 06:45:41;;;;;;;33.42;10.38;;;2.60;99.30;;;;;;5107116;28;20494;-63
2021/01/18 06:48:09;;;;;;;35.47;11.70;;;2.70;99.10;;;;;;5101162;28;20069;-62
2021/01/18 06:50:38;;;;;;;29.75;10.68;;;2.60;99.20;;;;;;5105541;28;20078;-63
2021/01/18 06:53:23;;;;;;;28.83;9.93;;;2.70;98.90;;;;;;5108482;28;20598;-62
2021/01/18 06:56:09;;;;;;;25.98;10.55;;;2.70;98.90;;;;;;5103271;28;20051;-62
2021/01/18 06:59:04;;;;;;;32.15;10.63;;;2.70;99.00;;;;;;5105725;28;20044;-63
2021/01/18 07:01:44;;;;;;;31.17;11.63;;;2.80;99.10;;;;;;5085574;28;20051;-63
2021/01/18 07:04:14;;;;;;;31.27;10.13;;;2.70;99.40;;;;;;5107605;28;20069;-62
2021/01/18 07:06:42;;;;;;;34.83;11.23;;;2.80;99.20;;;;;;5104385;28;20628;-62
2021/01/18 07:09:14;;;;;;;35.20;10.95;;;2.80;99.20;;;;;;5112631;28;20067;-62
2021/01/18 07:11:42;;;;;;;32.20;11.75;;;2.80;99.20;;;;;;5099684;28;20111;-62
2021/01/18 07:14:10;;;;;;;30.38;11.27;;;2.90;99.00;;;;;;5110286;28;20244;-63
2021/01/18 07:16:40;;;;;;;27.77;10.77;;;3.00;98.80;;;;;;5099515;28;20131;-62
2021/01/18 07:19:11;;;;;;;31.83;12.20;;;2.90;98.70;;;;;;5107711;28;20042;-61
2021/01/18 07:22:09;;;;;;;;;;;3.00;98.70;;;;;;5105418;28;20308;-62
2021/01/18 07:24:43;;;;;;;35.47;12.75;;;2.90;99.00;;;;;;5085203;28;19930;-61
2021/01/18 07:27:15;;;;;;;30.13;11.75;;;2.90;99.10;;;;;;5063455;28;20057;-61
2021/01/18 07:29:42;;;;;;;33.40;12.40;;;2.90;99.20;;;;;;5084190;28;20107;-61
2021/01/18 07:32:09;;;;;;;34.30;11.18;;;2.90;99.10;;;;;;5076576;28;20052;-61
2021/01/18 07:34:37;;;;;;;35.67;14.13;;;2.90;99.00;;;;;;5085030;28;20048;-61
2021/01/18 07:37:09;;;;;;;41.40;12.52;;;3.00;99.00;;;;;;5083729;28;20335;-61
2021/01/18 07:39:40;;;;;;;36.53;13.38;;;3.00;99.10;;;;;;5087951;28;20106;-62
2021/01/18 07:42:32;;;;;;;34.72;13.38;;;3.00;98.80;;;;;;5082550;28;20067;-62
2021/01/18 07:45:12;;;;;;;32.30;12.75;;;3.10;99.30;;;;;;5085379;28;20347;-62
2021/01/18 07:47:56;;;;;;;40.03;13.65;;;3.10;98.80;;;;;;5077703;28;20059;-62
2021/01/18 07:50:33;;;;;;;39.60;14.20;;;3.10;98.60;;;;;;5084991;28;20073;-62
2021/01/18 07:53:10;;;;;;;34.65;12.88;;;3.10;98.70;;;;;;5061871;28;20075;-62
2021/01/18 07:55:39;;;;;;;39.85;13.32;;;3.10;98.90;;;;;;5062462;28;20051;-62
2021/01/18 07:58:18;;;;;;;35.17;13.45;;;3.10;98.80;;;;;;5082156;28;20036;-62
2021/01/18 08:00:45;;;;;;;31.25;14.73;;;3.10;98.90;;;;;;5095336;28;20482;-62
2021/01/18 08:03:12;;;;;;;39.25;14.38;;;3.00;99.10;;;;;;5107652;28;20051;-62
2021/01/18 08:05:42;;;;;;;47.25;14.85;;;3.10;99.10;;;;;;5108155;28;20035;-62
2021/01/18 08:08:11;;;;;;;38.78;14.27;;;3.00;99.20;;;;;;5115780;28;20052;-61
2021/01/18 08:11:03;;;;;;;32.08;13.45;;;3.10;99.40;;;;;;5108591;28;20043;-67
2021/01/18 08:13:43;;;;;;;32.53;14.10;;;3.30;99.00;;;;;;5112795;28;20047;-68
2021/01/18 08:16:14;;;;;;;38.38;14.95;;;3.30;99.00;;;;;;5111015;27;20043;-67
2021/01/18 08:18:54;;;;;;;37.50;14.77;;;3.30;99.00;;;;;;5115713;27;20390;-67
2021/01/18 08:21:42;;;;;;;36.65;14.27;;;3.30;98.90;;;;;;5101269;27;20048;-67
2021/01/18 08:24:36;;;;;;;40.50;14.95;;;3.40;98.80;;;;;;5098659;27;20052;-67
2021/01/18 08:27:06;;;;;;;35.10;14.73;;;3.50;98.90;;;;;;5102425;27;20052;-68
2021/01/18 08:29:46;;;;;;;;;;;3.50;98.60;;;;;;5096093;28;20044;-68
2021/01/18 08:32:21;;;;;;;37.15;15.15;;;3.50;98.80;;;;;;5082106;28;19930;-68
2021/01/18 08:34:56;;;;;;;45.72;15.13;;;3.50;98.80;;;;;;5092250;28;20051;-67
2021/01/18 08:37:23;;;;;;;33.83;14.60;;;3.50;99.00;;;;;;5071125;28;20535;-67
2021/01/18 08:39:58;;;;;;;34.63;14.93;;;3.70;99.00;;;;;;5082485;28;20044;-68
2021/01/18 08:42:32;;;;;;;46.13;16.10;;;3.80;98.60;;;;;;5067148;28;20105;-68
2021/01/18 08:45:03;;;;;;;41.05;15.27;;;3.80;98.80;;;;;;5093172;28;20036;-67
2021/01/18 08:47:51;;;;;;;39.13;15.77;;;3.90;98.70;;;;;;5067996;28;20048;-67
2021/01/18 08:50:29;;;;;;;40.42;16.55;;;3.80;98.90;;;;;;5078024;28;20080;-67
2021/01/18 08:52:59;;;;;;;38.20;15.70;;;3.90;99.00;;;;;;5069241;28;20048;-67
2021/01/18 08:55:29;;;;;;;37.03;15.77;;;4.00;98.60;;;;;;5083124;28;20513;-67
2021/01/18 08:58:05;;;;;;;34.72;15.00;;;4.00;98.50;;;;;;5084818;28;20628;-67
2021/01/18 09:00:38;;;;;;;33.42;14.68;;;4.20;98.20;;;;;;5088762;28;20113;-68
2021/01/18 09:03:04;;;;;;;34.10;15.10;;;4.20;98.50;;;;;;5083477;28;20044;-68
2021/01/18 09:05:31;;;;;;;34.83;15.95;;;4.30;97.90;;;;;;5097647;28;20040;-68
2021/01/18 09:08:01;;;;;;;38.70;15.50;;;4.30;98.20;;;;;;5082736;28;20048;-68
2021/01/18 09:10:27;;;;;;;35.40;15.32;;;4.30;98.20;;;;;;5086776;28;20056;-68
2021/01/18 09:12:56;;;;;;;40.67;17.58;;;4.30;98.10;;;;;;5080851;28;20067;-68
2021/01/18 09:15:22;;;;;;;39.80;15.82;;;4.30;98.00;;;;;;5099758;28;20078;-68
2021/01/18 09:17:49;;;;;;;36.63;16.08;;;4.30;98.20;;;;;;5073967;28;20044;-68
2021/01/18 09:20:16;;;;;;;37.95;15.45;;;4.40;98.00;;;;;;5079792;28;20101;-68
2021/01/18 09:22:45;;;;;;;42.22;15.45;;;4.50;97.90;;;;;;5071299;28;20056;-68
2021/01/18 09:25:14;;;;;;;39.45;14.93;;;4.40;98.10;;;;;;5078196;28;20134;-66
2021/01/18 09:27:41;;;;;;;36.80;15.37;;;4.40;97.90;;;;;;5064260;28;20052;-64
2021/01/18 09:30:09;;;;;;;31.83;15.07;;;4.40;97.70;;;;;;5064083;28;20040;-70
2021/01/18 09:32:38;;;;;;;27.30;14.35;;;4.50;98.10;;;;;;5086524;28;20111;-69
2021/01/18 09:35:14;;;;;;;36.25;15.02;;;4.50;98.00;;;;;;5097369;28;20495;-68
2021/01/18 09:37:46;;;;;;;33.60;14.73;;;4.60;97.90;;;;;;5076615;28;20077;-68
2021/01/18 09:40:14;;;;;;;31.05;14.25;;;4.60;97.90;;;;;;5097347;28;20096;-69
2021/01/18 09:42:41;;;;;;;41.53;15.57;;;4.60;97.80;;;;;;5085650;28;20525;-68
2021/01/18 09:45:11;;;;;;;29.48;14.02;;;4.70;98.00;;;;;;5097317;28;20377;-69
2021/01/18 09:47:37;;;;;;;35.28;14.82;;;4.70;97.60;;;;;;5068445;28;20036;-65
2021/01/18 09:50:13;;;;;;;41.70;15.05;;;4.70;97.70;;;;;;5097019;28;20043;-68
2021/01/18 09:52:49;;;;;;;29.98;13.27;;;4.70;97.70;;;;;;5082011;28;20116;-68
2021/01/18 09:55:23;;;;;;;32.72;12.95;;;4.70;97.80;;;;;;5092581;28;20040;-68
2021/01/18 09:58:14;;;;;;;25.80;12.85;;;4.80;97.40;;;;;;5083159;28;20044;-68
2021/01/18 10:00:44;;;;;;;;;;;4.70;97.40;;;;;;5096164;28;20048;-68
2021/01/18 10:03:12;;;;;;;33.13;12.70;;;4.80;97.40;;;;;;5084692;28;19927;-68
2021/01/18 10:05:45;;;;;;;30.70;11.73;;;4.80;97.70;;;;;;5097333;28;20123;-68
2021/01/18 10:08:23;;;;;;;26.35;12.52;;;4.90;97.70;;;;;;5085002;28;20067;-68
2021/01/18 10:10:51;;;;;;;27.30;11.82;;;4.90;97.70;;;;;;5079933;28;20040;-68
2021/01/18 10:13:19;;;;;;;21.70;10.88;;;5.00;97.50;;;;;;5085522;28;20075;-68
2021/01/18 10:15:46;;;;;;;35.05;13.13;;;5.20;97.10;;;;;;5096839;28;20072;-68
2021/01/18 10:18:29;;;;;;;27.73;12.05;;;5.20;97.20;;;;;;5084389;28;20051;-68
2021/01/18 10:20:57;;;;;;;26.23;11.05;;;5.20;97.20;;;;;;5098116;28;20111;-68
2021/01/18 10:23:24;;;;;;;27.30;11.88;;;5.30;96.90;;;;;;5083637;28;20059;-68
2021/01/18 10:25:50;;;;;;;25.50;10.57;;;5.40;96.50;;;;;;5095077;28;20090;-69
2021/01/18 10:28:19;;;;;;;28.42;12.00;;;5.40;96.50;;;;;;5090147;28;20052;-68
2021/01/18 10:31:19;;;;;;;28.65;12.35;;;5.40;96.50;;;;;;5094032;27;20147;-69
2021/01/18 10:34:04;;;;;;;22.40;11.75;;;5.30;97.10;;;;;;5110402;27;20331;-69
2021/01/18 10:36:31;;;;;;;22.55;12.75;;;5.50;96.60;;;;;;5101912;27;20095;-69
2021/01/18 10:38:58;;;;;;;37.20;13.05;;;5.40;96.80;;;;;;5121243;27;20052;-68
2021/01/18 10:41:27;;;;;;;32.35;13.00;;;5.50;96.70;;;;;;5095797;27;20481;-69
2021/01/18 10:44:03;;;;;;;26.10;13.48;;;5.60;96.50;;;;;;5115783;27;20152;-68
2021/01/18 10:46:29;;;;;;;27.83;11.70;;;5.50;96.80;;;;;;5087954;28;20048;-68
2021/01/18 10:48:56;;;;;;;26.45;11.05;;;5.50;96.80;;;;;;5097619;28;20036;-68
2021/01/18 10:51:27;;;;;;;23.38;11.10;;;5.50;96.60;;;;;;5091687;28;20048;-68
2021/01/18 10:54:00;;;;;;;32.03;11.77;;;5.70;96.20;;;;;;5095429;28;20051;-69
2021/01/18 10:56:31;;;;;;;28.58;10.07;;;5.60;96.40;;;;;;5085771;28;22050;-68
2021/01/18 10:58:59;;;;;;;30.80;10.68;;;5.50;96.50;;;;;;5098931;28;20051;-68
2021/01/18 11:01:26;;;;;;;26.58;10.20;;;5.50;96.40;;;;;;5093900;28;20044;-68
2021/01/18 11:04:03;;;;;;;32.85;10.27;;;5.60;96.50;;;;;;5095377;28;20036;-68
2021/01/18 11:06:35;;;;;;;29.45;10.88;;;5.60;96.50;;;;;;5116566;28;20055;-68
2021/01/18 11:09:03;;;;;;;22.88;9.48;;;5.60;96.30;;;;;;5119284;28;20382;-68
2021/01/18 11:11:29;;;;;;;21.02;9.07;;;5.60;96.20;;;;;;5116581;27;20047;-66
2021/01/18 11:14:05;;;;;;;30.35;10.90;;;5.60;96.30;;;;;;5125454;27;20050;-66
2021/01/18 11:16:33;;;;;;;26.45;10.13;;;5.50;96.50;;;;;;5096774;28;20240;-67
2021/01/18 11:19:04;;;;;;;21.45;9.00;;;5.60;96.40;;;;;;5117916;28;20043;-66
2021/01/18 11:21:31;;;;;;;23.23;9.30;;;5.70;96.30;;;;;;5109502;28;20047;-66
2021/01/18 11:23:58;;;;;;;22.65;8.55;;;5.70;95.90;;;;;;5105464;28;20044;-66
2021/01/18 11:26:24;;;;;;;21.13;8.38;;;5.70;96.30;;;;;;5106938;28;20036;-67
2021/01/18 11:28:51;;;;;;;21.67;7.35;;;5.70;96.10;;;;;;5113105;28;20059;-66
2021/01/18 11:31:17;;;;;;;26.08;8.88;;;5.70;96.30;;;;;;5110462;28;20114;-67
2021/01/18 11:33:44;;;;;;;17.88;8.90;;;5.70;96.20;;;;;;5105018;28;20048;-66
2021/01/18 11:36:14;;;;;;;16.02;8.32;;;5.70;96.50;;;;;;5120637;27;20069;-66
2021/01/18 11:38:40;;;;;;;25.55;8.57;;;5.70;96.50;;;;;;5103210;28;20066;-66
2021/01/18 11:41:06;;;;;;;24.35;9.63;;;5.60;96.70;;;;;;5120049;28;20036;-66
2021/01/18 11:43:33;;;;;;;21.45;8.85;;;5.60;97.10;;;;;;5100507;28;20048;-67
2021/01/18 11:46:03;;;;;;;15.15;8.88;;;5.50;97.30;;;;;;5119097;28;20101;-68
2021/01/18 11:48:30;;;;;;;24.92;10.00;;;5.50;97.40;;;;;;5102224;28;20143;-68
2021/01/18 11:50:57;;;;;;;25.77;8.88;;;5.50;97.40;;;;;;5118162;28;20055;-66
2021/01/18 11:53:24;;;;;;;20.50;10.35;;;5.50;97.50;;;;;;5101737;28;20100;-68
2021/01/18 11:55:50;;;;;;;22.88;8.65;;;5.50;97.40;;;;;;5101520;28;20040;-68
2021/01/18 11:58:17;;;;;;;28.23;9.98;;;5.50;97.40;;;;;;5104103;28;20509;-68
2021/01/18 12:00:44;;;;;;;27.05;9.68;;;5.50;97.20;;;;;;5122523;27;20304;-68
2021/01/18 12:03:11;;;;;;;22.15;8.43;;;5.60;97.20;;;;;;5101339;27;20044;-68
2021/01/18 12:05:37;;;;;;;25.98;10.77;;;5.60;97.30;;;;;;5126093;27;20047;-68
2021/01/18 12:08:05;;;;;;;24.15;10.60;;;5.70;97.10;;;;;;5097406;28;20058;-68
2021/01/18 12:10:34;;;;;;;28.20;10.98;;;5.60;97.50;;;;;;5114970;28;20058;-68
2021/01/18 12:13:05;;;;;;;20.38;8.95;;;5.60;97.60;;;;;;5106387;28;20056;-68
2021/01/18 12:15:32;;;;;;;22.35;9.50;;;5.70;97.20;;;;;;5123350;27;20050;-68
2021/01/18 12:17:58;;;;;;;25.77;9.80;;;5.60;97.20;;;;;;5111991;27;20542;-68
2021/01/18 12:20:26;;;;;;;24.70;9.15;;;5.60;97.40;;;;;;5127100;27;20047;-68
2021/01/18 12:22:55;;;;;;;18.30;8.82;;;5.60;97.50;;;;;;5103862;28;20043;-68
2021/01/18 12:25:23;;;;;;;19.38;8.05;;;5.70;97.20;;;;;;5116591;27;20047;-67
2021/01/18 12:27:50;;;;;;;24.67;8.90;;;5.70;97.20;;;;;;5105033;27;20038;-68
2021/01/18 12:30:17;;;;;;;16.35;7.63;;;5.80;97.10;;;;;;5124858;27;20054;-68
2021/01/18 12:32:44;;;;;;;22.65;7.78;;;5.90;96.60;;;;;;5122486;27;20094;-68
2021/01/18 12:35:11;;;;;;;23.90;8.95;;;5.90;96.50;;;;;;5116136;27;20085;-68
2021/01/18 12:37:37;;;;;;;23.35;8.70;;;5.80;96.70;;;;;;5107460;28;20047;-68
2021/01/18 12:40:08;;;;;;;25.42;9.93;;;5.90;96.80;;;;;;5114763;27;20055;-67
2021/01/18 12:42:42;;;;;;;30.38;10.30;;;5.90;96.60;;;;;;5107652;27;20126;-68
2021/01/18 12:45:11;;;;;;;17.50;8.43;;;5.90;96.50;;;;;;5107773;27;20044;-67
2021/01/18 12:47:38;;;;;;;19.50;8.80;;;6.00;95.60;;;;;;5108908;27;20058;-68
2021/01/18 12:50:06;;;;;;;19.63;8.90;;;6.00;95.70;;;;;;5117721;27;20492;-68
2021/01/18 12:52:35;;;;;;;21.38;9.05;;;6.00;96.00;;;;;;5107377;28;20047;-68
2021/01/18 12:55:01;;;;;;;23.35;9.40;;;6.00;96.00;;;;;;5108474;27;20483;-68
2021/01/18 12:57:27;;;;;;;21.15;9.18;;;6.10;95.90;;;;;;5107816;27;20075;-68
2021/01/18 12:59:54;;;;;;;25.50;9.23;;;6.00;95.80;;;;;;5108811;28;20044;-68
2021/01/18 13:02:20;;;;;;;23.00;9.93;;;6.00;96.00;;;;;;5101879;28;20039;-67
2021/01/18 13:04:49;;;;;;;25.75;10.25;;;6.00;95.70;;;;;;5119798;27;20104;-67